sensor_id;sensor_type;location;lat;lon;timestamp;P1;durP1;ratioP1;P2;durP2;ratioP2
18407;SDS011;9330;52.210;21.174;2023-08-31T00:02:26;10.00;;;9.10;;
18407;SDS011;9330;52.210;21.174;2023-08-31T00:04:53;9.82;;;8.18;;
18407;SDS011;9330;52.210;21.174;2023-08-31T00:07:20;10.30;;;8.05;;
18407;SDS011;9330;52.210;21.174;2023-08-31T00:09:48;8.55;;;7.63;;
18407;SDS011;9330;52.210;21.174;2023-08-31T00:12:15;10.88;;;8.43;;
18407;SDS011;9330;52.210;21.174;2023-08-31T00:14:41;9.80;;;8.63;;
18407;SDS011;9330;52.210;21.174;2023-08-31T00:17:10;8.38;;;7.63;;
18407;SDS011;9330;52.210;21.174;2023-08-31T00:19:36;8.07;;;6.90;;
18407;SDS011;9330;52.210;21.174;2023-08-31T00:22:03;8.70;;;7.82;;
18407;SDS011;9330;52.210;21.174;2023-08-31T00:24:30;7.95;;;7.15;;
18407;SDS011;9330;52.210;21.174;2023-08-31T00:26:58;7.82;;;7.03;;
18407;SDS011;9330;52.210;21.174;2023-08-31T00:29:25;7.32;;;6.53;;
18407;SDS011;9330;52.210;21.174;2023-08-31T00:31:52;8.40;;;7.22;;
18407;SDS011;9330;52.210;21.174;2023-08-31T00:34:20;8.38;;;7.57;;
18407;SDS011;9330;52.210;21.174;2023-08-31T00:36:47;8.75;;;7.95;;
18407;SDS011;9330;52.210;21.174;2023-08-31T00:39:14;8.20;;;7.50;;
18407;SDS011;9330;52.210;21.174;2023-08-31T00:41:45;7.70;;;7.00;;
18407;SDS011;9330;52.210;21.174;2023-08-31T00:44:12;8.07;;;7.28;;
18407;SDS011;9330;52.210;21.174;2023-08-31T00:46:40;9.15;;;7.70;;
18407;SDS011;9330;52.210;21.174;2023-08-31T00:49:07;8.25;;;7.53;;
18407;SDS011;9330;52.210;21.174;2023-08-31T00:51:36;8.50;;;6.90;;
18407;SDS011;9330;52.210;21.174;2023-08-31T00:54:03;8.43;;;7.55;;
18407;SDS011;9330;52.210;21.174;2023-08-31T00:56:31;9.68;;;7.75;;
18407;SDS011;9330;52.210;21.174;2023-08-31T00:58:58;6.72;;;6.13;;
18407;SDS011;9330;52.210;21.174;2023-08-31T01:01:25;6.40;;;5.90;;
18407;SDS011;9330;52.210;21.174;2023-08-31T01:04:03;7.15;;;6.45;;
18407;SDS011;9330;52.210;21.174;2023-08-31T01:06:46;6.80;;;6.15;;
18407;SDS011;9330;52.210;21.174;2023-08-31T01:09:27;7.13;;;6.43;;
18407;SDS011;9330;52.210;21.174;2023-08-31T01:11:59;7.28;;;6.57;;
18407;SDS011;9330;52.210;21.174;2023-08-31T01:14:31;7.30;;;5.82;;
18407;SDS011;9330;52.210;21.174;2023-08-31T01:17:04;6.80;;;5.90;;
18407;SDS011;9330;52.210;21.174;2023-08-31T01:19:39;6.78;;;6.18;;
18407;SDS011;9330;52.210;21.174;2023-08-31T01:22:13;6.00;;;5.40;;
18407;SDS011;9330;52.210;21.174;2023-08-31T01:24:45;5.82;;;5.32;;
18407;SDS011;9330;52.210;21.174;2023-08-31T01:27:12;5.65;;;5.15;;
18407;SDS011;9330;52.210;21.174;2023-08-31T01:29:40;5.00;;;4.60;;
18407;SDS011;9330;52.210;21.174;2023-08-31T01:32:07;7.57;;;5.70;;
18407;SDS011;9330;52.210;21.174;2023-08-31T01:34:34;6.50;;;5.93;;
18407;SDS011;9330;52.210;21.174;2023-08-31T01:37:03;5.78;;;5.28;;
18407;SDS011;9330;52.210;21.174;2023-08-31T01:39:37;5.32;;;4.82;;
18407;SDS011;9330;52.210;21.174;2023-08-31T01:42:09;6.00;;;5.10;;
18407;SDS011;9330;52.210;21.174;2023-08-31T01:44:39;6.47;;;5.03;;
18407;SDS011;9330;52.210;21.174;2023-08-31T01:47:07;4.63;;;4.22;;
18407;SDS011;9330;52.210;21.174;2023-08-31T01:49:35;6.05;;;5.40;;
18407;SDS011;9330;52.210;21.174;2023-08-31T01:52:03;4.95;;;4.55;;
18407;SDS011;9330;52.210;21.174;2023-08-31T01:54:30;5.03;;;4.50;;
18407;SDS011;9330;52.210;21.174;2023-08-31T01:56:57;5.00;;;4.50;;
18407;SDS011;9330;52.210;21.174;2023-08-31T01:59:25;6.30;;;4.78;;
18407;SDS011;9330;52.210;21.174;2023-08-31T02:01:53;5.40;;;4.90;;
18407;SDS011;9330;52.210;21.174;2023-08-31T02:04:19;5.03;;;4.40;;
18407;SDS011;9330;52.210;21.174;2023-08-31T02:06:46;4.85;;;4.45;;
18407;SDS011;9330;52.210;21.174;2023-08-31T02:09:13;5.32;;;4.60;;
18407;SDS011;9330;52.210;21.174;2023-08-31T02:11:40;4.93;;;3.47;;
18407;SDS011;9330;52.210;21.174;2023-08-31T02:14:07;6.13;;;4.95;;
18407;SDS011;9330;52.210;21.174;2023-08-31T02:16:35;5.55;;;5.05;;
18407;SDS011;9330;52.210;21.174;2023-08-31T02:19:02;5.97;;;4.88;;
18407;SDS011;9330;52.210;21.174;2023-08-31T02:21:29;4.97;;;4.30;;
18407;SDS011;9330;52.210;21.174;2023-08-31T02:23:55;4.97;;;4.57;;
18407;SDS011;9330;52.210;21.174;2023-08-31T02:26:22;5.10;;;4.60;;
18407;SDS011;9330;52.210;21.174;2023-08-31T02:28:49;6.90;;;4.80;;
18407;SDS011;9330;52.210;21.174;2023-08-31T02:31:16;5.35;;;4.85;;
18407;SDS011;9330;52.210;21.174;2023-08-31T02:33:45;5.10;;;4.60;;
18407;SDS011;9330;52.210;21.174;2023-08-31T02:36:13;5.97;;;5.30;;
18407;SDS011;9330;52.210;21.174;2023-08-31T02:38:40;8.57;;;5.15;;
18407;SDS011;9330;52.210;21.174;2023-08-31T02:41:06;6.57;;;5.40;;
18407;SDS011;9330;52.210;21.174;2023-08-31T02:43:33;5.18;;;4.53;;
18407;SDS011;9330;52.210;21.174;2023-08-31T02:46:00;5.10;;;4.60;;
18407;SDS011;9330;52.210;21.174;2023-08-31T02:48:27;5.40;;;4.65;;
18407;SDS011;9330;52.210;21.174;2023-08-31T02:50:56;5.07;;;4.57;;
18407;SDS011;9330;52.210;21.174;2023-08-31T02:53:23;5.30;;;4.85;;
18407;SDS011;9330;52.210;21.174;2023-08-31T02:55:50;7.25;;;5.50;;
18407;SDS011;9330;52.210;21.174;2023-08-31T02:58:16;5.40;;;4.85;;
18407;SDS011;9330;52.210;21.174;2023-08-31T03:00:44;5.20;;;4.70;;
18407;SDS011;9330;52.210;21.174;2023-08-31T03:03:12;6.15;;;5.25;;
18407;SDS011;9330;52.210;21.174;2023-08-31T03:05:39;6.35;;;4.90;;
18407;SDS011;9330;52.210;21.174;2023-08-31T03:08:08;5.35;;;4.82;;
18407;SDS011;9330;52.210;21.174;2023-08-31T03:10:35;5.63;;;5.15;;
18407;SDS011;9330;52.210;21.174;2023-08-31T03:13:02;5.43;;;4.57;;
18407;SDS011;9330;52.210;21.174;2023-08-31T03:15:29;5.28;;;4.78;;
18407;SDS011;9330;52.210;21.174;2023-08-31T03:17:58;6.25;;;4.88;;
18407;SDS011;9330;52.210;21.174;2023-08-31T03:20:25;5.53;;;5.03;;
18407;SDS011;9330;52.210;21.174;2023-08-31T03:22:52;5.55;;;4.95;;
18407;SDS011;9330;52.210;21.174;2023-08-31T03:25:20;5.15;;;4.65;;
18407;SDS011;9330;52.210;21.174;2023-08-31T03:27:47;4.75;;;4.35;;
18407;SDS011;9330;52.210;21.174;2023-08-31T03:30:14;5.28;;;4.78;;
18407;SDS011;9330;52.210;21.174;2023-08-31T03:32:40;4.20;;;3.90;;
18407;SDS011;9330;52.210;21.174;2023-08-31T03:35:08;4.88;;;4.45;;
18407;SDS011;9330;52.210;21.174;2023-08-31T03:37:35;5.65;;;4.75;;
18407;SDS011;9330;52.210;21.174;2023-08-31T03:40:02;5.20;;;4.57;;
18407;SDS011;9330;52.210;21.174;2023-08-31T03:42:32;5.57;;;4.10;;
18407;SDS011;9330;52.210;21.174;2023-08-31T03:44:59;5.15;;;4.72;;
18407;SDS011;9330;52.210;21.174;2023-08-31T03:47:26;4.80;;;4.40;;
18407;SDS011;9330;52.210;21.174;2023-08-31T03:49:53;4.40;;;4.00;;
18407;SDS011;9330;52.210;21.174;2023-08-31T03:52:20;5.68;;;3.90;;
18407;SDS011;9330;52.210;21.174;2023-08-31T03:54:49;4.10;;;3.70;;
18407;SDS011;9330;52.210;21.174;2023-08-31T03:57:17;4.43;;;4.07;;
18407;SDS011;9330;52.210;21.174;2023-08-31T03:59:45;4.30;;;3.90;;
18407;SDS011;9330;52.210;21.174;2023-08-31T04:02:12;4.40;;;3.80;;
18407;SDS011;9330;52.210;21.174;2023-08-31T04:04:39;4.40;;;4.00;;
18407;SDS011;9330;52.210;21.174;2023-08-31T04:07:06;4.57;;;3.75;;
18407;SDS011;9330;52.210;21.174;2023-08-31T04:09:33;6.90;;;4.50;;
18407;SDS011;9330;52.210;21.174;2023-08-31T04:12:00;4.80;;;4.05;;
18407;SDS011;9330;52.210;21.174;2023-08-31T04:14:27;6.28;;;4.85;;
18407;SDS011;9330;52.210;21.174;2023-08-31T04:16:56;4.60;;;4.03;;
18407;SDS011;9330;52.210;21.174;2023-08-31T04:19:22;5.72;;;4.28;;
18407;SDS011;9330;52.210;21.174;2023-08-31T04:21:49;5.28;;;4.45;;
18407;SDS011;9330;52.210;21.174;2023-08-31T04:24:16;4.57;;;4.15;;
18407;SDS011;9330;52.210;21.174;2023-08-31T04:26:43;4.57;;;4.10;;
18407;SDS011;9330;52.210;21.174;2023-08-31T04:29:10;4.68;;;4.28;;
18407;SDS011;9330;52.210;21.174;2023-08-31T04:31:37;5.55;;;3.80;;
18407;SDS011;9330;52.210;21.174;2023-08-31T04:34:06;5.50;;;4.18;;
18407;SDS011;9330;52.210;21.174;2023-08-31T04:36:33;4.35;;;3.95;;
18407;SDS011;9330;52.210;21.174;2023-08-31T04:39:00;4.10;;;3.72;;
18407;SDS011;9330;52.210;21.174;2023-08-31T04:41:27;5.10;;;3.92;;
18407;SDS011;9330;52.210;21.174;2023-08-31T04:43:54;4.25;;;3.65;;
18407;SDS011;9330;52.210;21.174;2023-08-31T04:46:21;5.57;;;4.28;;
18407;SDS011;9330;52.210;21.174;2023-08-31T04:48:48;4.32;;;3.88;;
18407;SDS011;9330;52.210;21.174;2023-08-31T04:51:43;4.65;;;3.10;;
18407;SDS011;9330;52.210;21.174;2023-08-31T04:54:11;4.00;;;3.70;;
18407;SDS011;9330;52.210;21.174;2023-08-31T04:56:38;3.53;;;3.22;;
18407;SDS011;9330;52.210;21.174;2023-08-31T04:59:04;3.67;;;3.38;;
18407;SDS011;9330;52.210;21.174;2023-08-31T05:01:31;4.10;;;3.10;;
18407;SDS011;9330;52.210;21.174;2023-08-31T05:03:58;3.85;;;3.55;;
18407;SDS011;9330;52.210;21.174;2023-08-31T05:06:25;3.50;;;3.20;;
18407;SDS011;9330;52.210;21.174;2023-08-31T05:08:53;3.25;;;2.95;;
18407;SDS011;9330;52.210;21.174;2023-08-31T05:11:21;3.50;;;3.20;;
18407;SDS011;9330;52.210;21.174;2023-08-31T05:13:48;4.20;;;2.85;;
18407;SDS011;9330;52.210;21.174;2023-08-31T05:16:15;2.85;;;2.53;;
18407;SDS011;9330;52.210;21.174;2023-08-31T05:18:42;4.35;;;3.03;;
18407;SDS011;9330;52.210;21.174;2023-08-31T05:21:09;3.28;;;2.97;;
18407;SDS011;9330;52.210;21.174;2023-08-31T05:23:35;3.30;;;3.00;;
18407;SDS011;9330;52.210;21.174;2023-08-31T05:26:04;3.15;;;2.50;;
18407;SDS011;9330;52.210;21.174;2023-08-31T05:28:31;2.88;;;2.50;;
18407;SDS011;9330;52.210;21.174;2023-08-31T05:30:59;3.15;;;2.50;;
18407;SDS011;9330;52.210;21.174;2023-08-31T05:33:27;3.33;;;3.03;;
18407;SDS011;9330;52.210;21.174;2023-08-31T05:35:59;2.67;;;2.13;;
18407;SDS011;9330;52.210;21.174;2023-08-31T05:38:27;4.50;;;2.95;;
18407;SDS011;9330;52.210;21.174;2023-08-31T05:40:54;2.50;;;2.30;;
18407;SDS011;9330;52.210;21.174;2023-08-31T05:43:22;2.70;;;2.30;;
18407;SDS011;9330;52.210;21.174;2023-08-31T05:45:49;3.75;;;2.28;;
18407;SDS011;9330;52.210;21.174;2023-08-31T05:48:16;2.75;;;2.10;;
18407;SDS011;9330;52.210;21.174;2023-08-31T05:50:43;3.40;;;2.15;;
18407;SDS011;9330;52.210;21.174;2023-08-31T05:53:10;3.65;;;2.10;;
18407;SDS011;9330;52.210;21.174;2023-08-31T05:55:37;3.33;;;2.20;;
18407;SDS011;9330;52.210;21.174;2023-08-31T05:58:03;5.47;;;2.42;;
18407;SDS011;9330;52.210;21.174;2023-08-31T06:00:32;2.28;;;2.08;;
18407;SDS011;9330;52.210;21.174;2023-08-31T06:02:58;2.75;;;2.08;;
18407;SDS011;9330;52.210;21.174;2023-08-31T06:05:25;2.67;;;2.25;;
18407;SDS011;9330;52.210;21.174;2023-08-31T06:07:53;2.40;;;2.08;;
18407;SDS011;9330;52.210;21.174;2023-08-31T06:10:19;3.25;;;2.22;;
18407;SDS011;9330;52.210;21.174;2023-08-31T06:12:48;2.63;;;2.00;;
18407;SDS011;9330;52.210;21.174;2023-08-31T06:15:15;2.47;;;1.90;;
18407;SDS011;9330;52.210;21.174;2023-08-31T06:17:43;3.00;;;2.08;;
18407;SDS011;9330;52.210;21.174;2023-08-31T06:20:10;4.80;;;2.17;;
18407;SDS011;9330;52.210;21.174;2023-08-31T06:22:37;3.65;;;2.08;;
18407;SDS011;9330;52.210;21.174;2023-08-31T06:25:04;2.72;;;1.52;;
18407;SDS011;9330;52.210;21.174;2023-08-31T06:27:33;2.70;;;1.50;;
18407;SDS011;9330;52.210;21.174;2023-08-31T06:30:00;2.08;;;1.35;;
18407;SDS011;9330;52.210;21.174;2023-08-31T06:32:28;2.05;;;1.38;;
18407;SDS011;9330;52.210;21.174;2023-08-31T06:34:56;1.48;;;1.10;;
18407;SDS011;9330;52.210;21.174;2023-08-31T06:37:23;1.70;;;1.25;;
18407;SDS011;9330;52.210;21.174;2023-08-31T06:39:50;3.72;;;1.17;;
18407;SDS011;9330;52.210;21.174;2023-08-31T06:42:17;1.92;;;1.20;;
18407;SDS011;9330;52.210;21.174;2023-08-31T06:44:44;1.83;;;1.00;;
18407;SDS011;9330;52.210;21.174;2023-08-31T06:47:10;3.35;;;1.42;;
18407;SDS011;9330;52.210;21.174;2023-08-31T06:49:38;2.63;;;1.42;;
18407;SDS011;9330;52.210;21.174;2023-08-31T06:52:07;3.63;;;1.35;;
18407;SDS011;9330;52.210;21.174;2023-08-31T06:54:35;2.60;;;1.40;;
18407;SDS011;9330;52.210;21.174;2023-08-31T06:57:02;1.67;;;1.25;;
18407;SDS011;9330;52.210;21.174;2023-08-31T06:59:29;1.45;;;1.13;;
18407;SDS011;9330;52.210;21.174;2023-08-31T07:01:56;3.45;;;1.30;;
18407;SDS011;9330;52.210;21.174;2023-08-31T07:04:23;1.75;;;1.17;;
18407;SDS011;9330;52.210;21.174;2023-08-31T07:06:49;1.67;;;1.30;;
18407;SDS011;9330;52.210;21.174;2023-08-31T07:09:18;1.88;;;1.20;;
18407;SDS011;9330;52.210;21.174;2023-08-31T07:11:45;2.08;;;1.10;;
18407;SDS011;9330;52.210;21.174;2023-08-31T07:14:12;1.70;;;1.35;;
18407;SDS011;9330;52.210;21.174;2023-08-31T07:16:38;2.63;;;1.20;;
18407;SDS011;9330;52.210;21.174;2023-08-31T07:19:05;1.25;;;0.95;;
18407;SDS011;9330;52.210;21.174;2023-08-31T07:21:32;1.60;;;0.95;;
18407;SDS011;9330;52.210;21.174;2023-08-31T07:23:59;1.05;;;0.80;;
18407;SDS011;9330;52.210;21.174;2023-08-31T07:26:27;2.53;;;1.20;;
18407;SDS011;9330;52.210;21.174;2023-08-31T07:28:54;1.65;;;1.13;;
18407;SDS011;9330;52.210;21.174;2023-08-31T07:31:21;2.75;;;1.33;;
18407;SDS011;9330;52.210;21.174;2023-08-31T07:33:48;1.90;;;1.23;;
18407;SDS011;9330;52.210;21.174;2023-08-31T07:36:15;1.63;;;1.15;;
18407;SDS011;9330;52.210;21.174;2023-08-31T07:38:42;2.33;;;1.30;;
18407;SDS011;9330;52.210;21.174;2023-08-31T07:41:09;3.08;;;1.15;;
18407;SDS011;9330;52.210;21.174;2023-08-31T07:43:37;1.75;;;1.38;;
18407;SDS011;9330;52.210;21.174;2023-08-31T07:46:04;3.00;;;1.77;;
18407;SDS011;9330;52.210;21.174;2023-08-31T07:48:31;1.25;;;1.15;;
18407;SDS011;9330;52.210;21.174;2023-08-31T07:50:58;2.10;;;1.35;;
18407;SDS011;9330;52.210;21.174;2023-08-31T07:53:24;1.55;;;1.38;;
18407;SDS011;9330;52.210;21.174;2023-08-31T07:55:52;2.97;;;1.45;;
18407;SDS011;9330;52.210;21.174;2023-08-31T07:58:20;2.13;;;1.30;;
18407;SDS011;9330;52.210;21.174;2023-08-31T08:00:48;1.92;;;1.38;;
18407;SDS011;9330;52.210;21.174;2023-08-31T08:03:18;2.33;;;1.50;;
18407;SDS011;9330;52.210;21.174;2023-08-31T08:05:45;2.60;;;1.40;;
18407;SDS011;9330;52.210;21.174;2023-08-31T08:08:12;2.30;;;1.52;;
18407;SDS011;9330;52.210;21.174;2023-08-31T08:10:38;2.95;;;1.45;;
18407;SDS011;9330;52.210;21.174;2023-08-31T08:13:05;1.77;;;1.13;;
18407;SDS011;9330;52.210;21.174;2023-08-31T08:15:32;3.08;;;1.20;;
18407;SDS011;9330;52.210;21.174;2023-08-31T08:18:01;2.03;;;1.60;;
18407;SDS011;9330;52.210;21.174;2023-08-31T08:20:27;1.55;;;1.33;;
18407;SDS011;9330;52.210;21.174;2023-08-31T08:22:54;2.03;;;1.27;;
18407;SDS011;9330;52.210;21.174;2023-08-31T08:25:22;1.73;;;1.27;;
18407;SDS011;9330;52.210;21.174;2023-08-31T08:27:49;2.35;;;1.52;;
18407;SDS011;9330;52.210;21.174;2023-08-31T08:30:16;4.13;;;1.30;;
18407;SDS011;9330;52.210;21.174;2023-08-31T08:32:44;1.77;;;1.25;;
18407;SDS011;9330;52.210;21.174;2023-08-31T08:35:12;2.00;;;1.13;;
18407;SDS011;9330;52.210;21.174;2023-08-31T08:37:40;1.30;;;1.13;;
18407;SDS011;9330;52.210;21.174;2023-08-31T08:40:07;3.88;;;1.20;;
18407;SDS011;9330;52.210;21.174;2023-08-31T08:42:37;2.15;;;1.20;;
18407;SDS011;9330;52.210;21.174;2023-08-31T08:45:08;2.58;;;1.20;;
18407;SDS011;9330;52.210;21.174;2023-08-31T08:47:40;2.00;;;1.33;;
18407;SDS011;9330;52.210;21.174;2023-08-31T08:50:08;1.52;;;1.02;;
18407;SDS011;9330;52.210;21.174;2023-08-31T08:52:37;1.95;;;1.38;;
18407;SDS011;9330;52.210;21.174;2023-08-31T08:55:05;2.35;;;1.20;;
18407;SDS011;9330;52.210;21.174;2023-08-31T08:57:33;2.10;;;1.20;;
18407;SDS011;9330;52.210;21.174;2023-08-31T09:00:00;3.72;;;1.30;;
18407;SDS011;9330;52.210;21.174;2023-08-31T09:02:28;2.38;;;1.30;;
18407;SDS011;9330;52.210;21.174;2023-08-31T09:04:55;1.70;;;1.23;;
18407;SDS011;9330;52.210;21.174;2023-08-31T09:07:22;1.98;;;1.38;;
18407;SDS011;9330;52.210;21.174;2023-08-31T09:09:51;2.17;;;1.40;;
18407;SDS011;9330;52.210;21.174;2023-08-31T09:12:18;1.70;;;1.33;;
18407;SDS011;9330;52.210;21.174;2023-08-31T09:14:58;1.85;;;1.30;;
18407;SDS011;9330;52.210;21.174;2023-08-31T09:17:25;2.47;;;1.40;;
18407;SDS011;9330;52.210;21.174;2023-08-31T09:19:58;2.05;;;1.20;;
18407;SDS011;9330;52.210;21.174;2023-08-31T09:22:26;1.73;;;1.20;;
18407;SDS011;9330;52.210;21.174;2023-08-31T09:24:54;0.90;;;0.90;;
18407;SDS011;9330;52.210;21.174;2023-08-31T09:27:21;1.35;;;1.10;;
18407;SDS011;9330;52.210;21.174;2023-08-31T09:29:49;2.00;;;1.23;;
18407;SDS011;9330;52.210;21.174;2023-08-31T09:32:17;2.85;;;1.42;;
18407;SDS011;9330;52.210;21.174;2023-08-31T09:34:44;1.98;;;1.20;;
18407;SDS011;9330;52.210;21.174;2023-08-31T09:37:11;3.42;;;1.52;;
18407;SDS011;9330;52.210;21.174;2023-08-31T09:39:38;2.83;;;1.45;;
18407;SDS011;9330;52.210;21.174;2023-08-31T09:42:07;4.25;;;1.40;;
18407;SDS011;9330;52.210;21.174;2023-08-31T09:44:34;3.97;;;1.30;;
18407;SDS011;9330;52.210;21.174;2023-08-31T09:47:06;1.58;;;1.15;;
18407;SDS011;9330;52.210;21.174;2023-08-31T09:49:34;3.03;;;1.50;;
18407;SDS011;9330;52.210;21.174;2023-08-31T09:52:03;2.28;;;1.70;;
18407;SDS011;9330;52.210;21.174;2023-08-31T09:54:31;4.20;;;1.85;;
18407;SDS011;9330;52.210;21.174;2023-08-31T09:57:02;4.82;;;2.17;;
18407;SDS011;9330;52.210;21.174;2023-08-31T09:59:30;2.40;;;1.55;;
18407;SDS011;9330;52.210;21.174;2023-08-31T10:01:59;2.05;;;1.40;;
18407;SDS011;9330;52.210;21.174;2023-08-31T10:04:29;3.15;;;1.83;;
18407;SDS011;9330;52.210;21.174;2023-08-31T10:06:58;3.28;;;1.73;;
18407;SDS011;9330;52.210;21.174;2023-08-31T10:09:25;2.90;;;1.63;;
18407;SDS011;9330;52.210;21.174;2023-08-31T10:11:54;2.05;;;1.50;;
18407;SDS011;9330;52.210;21.174;2023-08-31T10:14:21;2.90;;;1.50;;
18407;SDS011;9330;52.210;21.174;2023-08-31T10:16:49;1.58;;;1.30;;
18407;SDS011;9330;52.210;21.174;2023-08-31T10:19:18;1.60;;;1.40;;
18407;SDS011;9330;52.210;21.174;2023-08-31T10:21:45;2.70;;;1.48;;
18407;SDS011;9330;52.210;21.174;2023-08-31T10:24:12;2.58;;;1.60;;
18407;SDS011;9330;52.210;21.174;2023-08-31T10:26:39;2.72;;;1.60;;
18407;SDS011;9330;52.210;21.174;2023-08-31T10:29:05;2.22;;;1.45;;
18407;SDS011;9330;52.210;21.174;2023-08-31T10:31:33;4.10;;;1.70;;
18407;SDS011;9330;52.210;21.174;2023-08-31T10:34:02;2.97;;;1.67;;
18407;SDS011;9330;52.210;21.174;2023-08-31T10:36:37;1.50;;;1.23;;
18407;SDS011;9330;52.210;21.174;2023-08-31T10:39:05;2.75;;;1.83;;
18407;SDS011;9330;52.210;21.174;2023-08-31T10:41:37;3.17;;;1.60;;
18407;SDS011;9330;52.210;21.174;2023-08-31T10:44:17;2.55;;;1.63;;
18407;SDS011;9330;52.210;21.174;2023-08-31T10:46:44;2.20;;;1.70;;
18407;SDS011;9330;52.210;21.174;2023-08-31T10:49:16;3.58;;;1.40;;
18407;SDS011;9330;52.210;21.174;2023-08-31T10:51:45;3.95;;;1.40;;
18407;SDS011;9330;52.210;21.174;2023-08-31T10:54:13;2.38;;;1.60;;
18407;SDS011;9330;52.210;21.174;2023-08-31T10:56:51;4.40;;;1.80;;
18407;SDS011;9330;52.210;21.174;2023-08-31T10:59:19;2.35;;;1.55;;
18407;SDS011;9330;52.210;21.174;2023-08-31T11:01:56;2.47;;;1.50;;
18407;SDS011;9330;52.210;21.174;2023-08-31T11:04:26;2.80;;;1.50;;
18407;SDS011;9330;52.210;21.174;2023-08-31T11:07:11;2.80;;;1.40;;
18407;SDS011;9330;52.210;21.174;2023-08-31T11:09:41;4.25;;;1.83;;
18407;SDS011;9330;52.210;21.174;2023-08-31T11:12:08;4.43;;;1.63;;
18407;SDS011;9330;52.210;21.174;2023-08-31T11:14:36;2.65;;;1.60;;
18407;SDS011;9330;52.210;21.174;2023-08-31T11:17:03;1.60;;;1.40;;
18407;SDS011;9330;52.210;21.174;2023-08-31T11:19:32;1.70;;;1.60;;
18407;SDS011;9330;52.210;21.174;2023-08-31T11:22:00;1.55;;;1.40;;
18407;SDS011;9330;52.210;21.174;2023-08-31T11:24:28;3.75;;;1.88;;
18407;SDS011;9330;52.210;21.174;2023-08-31T11:26:55;6.72;;;2.30;;
18407;SDS011;9330;52.210;21.174;2023-08-31T11:29:22;4.72;;;1.88;;
18407;SDS011;9330;52.210;21.174;2023-08-31T11:31:49;6.68;;;2.00;;
18407;SDS011;9330;52.210;21.174;2023-08-31T11:34:17;1.77;;;1.38;;
18407;SDS011;9330;52.210;21.174;2023-08-31T11:36:46;2.75;;;1.80;;
18407;SDS011;9330;52.210;21.174;2023-08-31T11:39:13;2.20;;;1.45;;
18407;SDS011;9330;52.210;21.174;2023-08-31T11:41:40;5.03;;;1.83;;
18407;SDS011;9330;52.210;21.174;2023-08-31T11:44:09;2.35;;;1.92;;
18407;SDS011;9330;52.210;21.174;2023-08-31T11:46:36;2.35;;;1.73;;
18407;SDS011;9330;52.210;21.174;2023-08-31T11:49:04;6.32;;;1.77;;
18407;SDS011;9330;52.210;21.174;2023-08-31T11:51:32;3.72;;;2.00;;
18407;SDS011;9330;52.210;21.174;2023-08-31T11:54:01;3.10;;;1.52;;
18407;SDS011;9330;52.210;21.174;2023-08-31T11:56:38;2.35;;;1.80;;
18407;SDS011;9330;52.210;21.174;2023-08-31T11:59:07;3.40;;;1.70;;
18407;SDS011;9330;52.210;21.174;2023-08-31T12:01:37;2.20;;;1.90;;
18407;SDS011;9330;52.210;21.174;2023-08-31T12:04:11;2.13;;;1.73;;
18407;SDS011;9330;52.210;21.174;2023-08-31T12:06:39;3.00;;;1.60;;
18407;SDS011;9330;52.210;21.174;2023-08-31T12:09:08;3.00;;;2.00;;
18407;SDS011;9330;52.210;21.174;2023-08-31T12:11:35;4.28;;;1.85;;
18407;SDS011;9330;52.210;21.174;2023-08-31T12:14:04;2.95;;;1.70;;
18407;SDS011;9330;52.210;21.174;2023-08-31T12:16:45;2.72;;;1.85;;
18407;SDS011;9330;52.210;21.174;2023-08-31T12:19:12;3.67;;;1.83;;
18407;SDS011;9330;52.210;21.174;2023-08-31T12:21:39;6.40;;;1.85;;
18407;SDS011;9330;52.210;21.174;2023-08-31T12:24:06;3.83;;;1.90;;
18407;SDS011;9330;52.210;21.174;2023-08-31T12:26:34;1.80;;;1.52;;
18407;SDS011;9330;52.210;21.174;2023-08-31T12:29:01;1.70;;;1.60;;
18407;SDS011;9330;52.210;21.174;2023-08-31T12:31:29;3.15;;;1.67;;
18407;SDS011;9330;52.210;21.174;2023-08-31T12:33:57;3.08;;;2.03;;
18407;SDS011;9330;52.210;21.174;2023-08-31T12:36:24;3.65;;;1.77;;
18407;SDS011;9330;52.210;21.174;2023-08-31T12:38:51;2.78;;;1.77;;
18407;SDS011;9330;52.210;21.174;2023-08-31T12:41:20;1.98;;;1.80;;
18407;SDS011;9330;52.210;21.174;2023-08-31T12:43:47;1.92;;;1.60;;
18407;SDS011;9330;52.210;21.174;2023-08-31T12:46:13;2.80;;;1.65;;
18407;SDS011;9330;52.210;21.174;2023-08-31T12:48:42;1.92;;;1.80;;
18407;SDS011;9330;52.210;21.174;2023-08-31T12:51:08;2.17;;;1.83;;
18407;SDS011;9330;52.210;21.174;2023-08-31T12:53:37;1.80;;;1.70;;
18407;SDS011;9330;52.210;21.174;2023-08-31T12:56:04;3.00;;;1.60;;
18407;SDS011;9330;52.210;21.174;2023-08-31T12:58:33;2.95;;;1.85;;
18407;SDS011;9330;52.210;21.174;2023-08-31T13:01:00;1.83;;;1.67;;
18407;SDS011;9330;52.210;21.174;2023-08-31T13:03:27;3.47;;;2.10;;
18407;SDS011;9330;52.210;21.174;2023-08-31T13:05:54;2.15;;;1.70;;
18407;SDS011;9330;52.210;21.174;2023-08-31T13:08:21;2.00;;;1.80;;
18407;SDS011;9330;52.210;21.174;2023-08-31T13:10:51;2.63;;;1.50;;
18407;SDS011;9330;52.210;21.174;2023-08-31T13:13:18;2.10;;;1.90;;
18407;SDS011;9330;52.210;21.174;2023-08-31T13:15:46;2.00;;;1.80;;
18407;SDS011;9330;52.210;21.174;2023-08-31T13:18:13;2.67;;;1.80;;
18407;SDS011;9330;52.210;21.174;2023-08-31T13:20:40;2.95;;;1.98;;
18407;SDS011;9330;52.210;21.174;2023-08-31T13:23:14;1.67;;;1.58;;
18407;SDS011;9330;52.210;21.174;2023-08-31T13:25:41;2.17;;;1.90;;
18407;SDS011;9330;52.210;21.174;2023-08-31T13:28:08;2.55;;;2.00;;
18407;SDS011;9330;52.210;21.174;2023-08-31T13:30:34;3.30;;;1.85;;
18407;SDS011;9330;52.210;21.174;2023-08-31T13:33:03;5.18;;;2.10;;
18407;SDS011;9330;52.210;21.174;2023-08-31T13:35:30;2.65;;;2.45;;
18407;SDS011;9330;52.210;21.174;2023-08-31T13:37:57;1.70;;;1.60;;
18407;SDS011;9330;52.210;21.174;2023-08-31T13:40:24;2.20;;;1.90;;
18407;SDS011;9330;52.210;21.174;2023-08-31T13:42:52;3.05;;;1.58;;
18407;SDS011;9330;52.210;21.174;2023-08-31T13:45:22;2.95;;;2.00;;
18407;SDS011;9330;52.210;21.174;2023-08-31T13:47:49;2.20;;;1.85;;
18407;SDS011;9330;52.210;21.174;2023-08-31T13:50:17;7.35;;;1.92;;
18407;SDS011;9330;52.210;21.174;2023-08-31T13:52:44;2.17;;;1.80;;
18407;SDS011;9330;52.210;21.174;2023-08-31T13:55:11;1.80;;;1.70;;
18407;SDS011;9330;52.210;21.174;2023-08-31T13:57:38;3.70;;;1.88;;
18407;SDS011;9330;52.210;21.174;2023-08-31T14:00:07;1.80;;;1.70;;
18407;SDS011;9330;52.210;21.174;2023-08-31T14:02:36;3.00;;;1.80;;
18407;SDS011;9330;52.210;21.174;2023-08-31T14:05:03;3.58;;;1.98;;
18407;SDS011;9330;52.210;21.174;2023-08-31T14:07:33;3.25;;;1.77;;
18407;SDS011;9330;52.210;21.174;2023-08-31T14:10:00;3.10;;;1.83;;
18407;SDS011;9330;52.210;21.174;2023-08-31T14:12:28;2.20;;;1.95;;
18407;SDS011;9330;52.210;21.174;2023-08-31T14:14:55;2.25;;;1.65;;
18407;SDS011;9330;52.210;21.174;2023-08-31T14:17:22;1.75;;;1.65;;
18407;SDS011;9330;52.210;21.174;2023-08-31T14:19:49;3.10;;;1.73;;
18407;SDS011;9330;52.210;21.174;2023-08-31T14:22:16;1.85;;;1.70;;
18407;SDS011;9330;52.210;21.174;2023-08-31T14:24:45;4.30;;;2.20;;
18407;SDS011;9330;52.210;21.174;2023-08-31T14:27:12;2.95;;;2.40;;
18407;SDS011;9330;52.210;21.174;2023-08-31T14:29:38;2.83;;;1.90;;
18407;SDS011;9330;52.210;21.174;2023-08-31T14:32:05;2.70;;;1.67;;
18407;SDS011;9330;52.210;21.174;2023-08-31T14:34:32;2.15;;;1.95;;
18407;SDS011;9330;52.210;21.174;2023-08-31T14:36:59;3.30;;;2.22;;
18407;SDS011;9330;52.210;21.174;2023-08-31T14:39:26;3.40;;;2.17;;
18407;SDS011;9330;52.210;21.174;2023-08-31T14:41:56;3.35;;;2.20;;
18407;SDS011;9330;52.210;21.174;2023-08-31T14:44:23;2.75;;;2.28;;
18407;SDS011;9330;52.210;21.174;2023-08-31T14:46:50;3.42;;;2.00;;
18407;SDS011;9330;52.210;21.174;2023-08-31T14:49:17;2.70;;;2.25;;
18407;SDS011;9330;52.210;21.174;2023-08-31T14:51:44;3.22;;;2.38;;
18407;SDS011;9330;52.210;21.174;2023-08-31T14:54:11;4.60;;;2.20;;